createdAt,value
2023-02-09T00:00:02.888Z,26.17
2023-02-09T00:02:29.812Z,26.10
2023-02-09T00:04:56.642Z,25.70
2023-02-09T00:07:23.623Z,26.20
2023-02-09T00:09:54.827Z,27.03
2023-02-09T00:12:40.362Z,27.77
2023-02-09T00:15:08.223Z,27.53
2023-02-09T00:17:36.235Z,28.30
2023-02-09T00:20:05.480Z,25.80
2023-02-09T00:22:32.624Z,27.07
2023-02-09T00:24:59.958Z,26.63
2023-02-09T00:27:26.925Z,26.00
2023-02-09T00:29:53.716Z,25.40
2023-02-09T00:32:20.665Z,26.53
2023-02-09T00:34:47.713Z,25.50
2023-02-09T00:37:14.573Z,27.10
2023-02-09T00:39:41.446Z,25.00
2023-02-09T00:42:10.950Z,26.13
2023-02-09T00:44:40.408Z,25.53
2023-02-09T00:47:09.058Z,26.37
2023-02-09T00:49:36.613Z,25.10
2023-02-09T00:52:04.627Z,26.33
2023-02-09T00:54:31.448Z,26.27
2023-02-09T00:57:05.128Z,24.53
2023-02-09T00:59:34.345Z,26.20
2023-02-09T01:02:01.797Z,25.70
2023-02-09T01:04:29.046Z,24.33
2023-02-09T01:06:57.066Z,26.33
2023-02-09T01:09:25.665Z,26.93
2023-02-09T01:11:52.598Z,29.70
2023-02-09T01:14:21.797Z,27.30
2023-02-09T01:16:48.727Z,26.43
2023-02-09T01:19:16.144Z,25.43
2023-02-09T01:21:43.199Z,25.53
2023-02-09T01:24:14.584Z,25.37
2023-02-09T01:26:41.794Z,26.70
2023-02-09T01:29:15.057Z,25.80
2023-02-09T01:31:42.504Z,40.73
2023-02-09T01:34:13.080Z,27.90
2023-02-09T01:36:40.149Z,27.07
2023-02-09T01:39:07.310Z,24.07
2023-02-09T01:41:34.590Z,23.10
2023-02-09T01:44:26.002Z,24.97
2023-02-09T01:46:54.108Z,23.83
2023-02-09T01:49:26.460Z,25.97
2023-02-09T01:52:03.124Z,24.00
2023-02-09T01:54:36.532Z,24.23
2023-02-09T01:57:26.626Z,25.43
2023-02-09T02:00:08.361Z,24.57
2023-02-09T02:02:35.944Z,23.50
2023-02-09T02:05:04.534Z,26.23
2023-02-09T02:07:37.337Z,26.30
2023-02-09T02:14:02.426Z,21.87
2023-02-09T02:16:45.729Z,22.50
2023-02-09T02:19:47.416Z,23.70
2023-02-09T02:22:36.946Z,21.53
2023-02-09T02:25:16.049Z,21.90
2023-02-09T02:28:07.953Z,22.50
2023-02-09T02:31:03.063Z,20.80
2023-02-09T02:33:44.651Z,23.70
2023-02-09T02:36:40.844Z,20.17
2023-02-09T02:39:18.006Z,20.80
2023-02-09T02:42:32.812Z,20.37
2023-02-09T02:45:08.495Z,19.20
2023-02-09T02:47:40.533Z,20.83
2023-02-09T02:50:14.779Z,18.77
2023-02-09T02:52:46.414Z,19.90
2023-02-09T02:55:16.784Z,20.90
2023-02-09T02:57:47.467Z,17.73
2023-02-09T03:00:39.362Z,19.73
2023-02-09T03:03:13.529Z,18.27
2023-02-09T03:05:42.580Z,20.33
2023-02-09T03:08:09.591Z,22.47
2023-02-09T03:10:39.704Z,21.63
2023-02-09T03:13:09.428Z,19.50
2023-02-09T03:15:58.190Z,19.83
2023-02-09T03:18:46.615Z,18.27
2023-02-09T03:21:40.866Z,20.70
2023-02-09T03:24:15.435Z,20.90
2023-02-09T03:27:09.995Z,20.87
2023-02-09T03:29:38.648Z,21.73
2023-02-09T03:32:07.106Z,21.60
2023-02-09T03:34:34.332Z,21.47
2023-02-09T03:37:01.334Z,21.30
2023-02-09T03:39:28.468Z,20.90
2023-02-09T03:41:55.518Z,23.10
2023-02-09T03:44:28.063Z,22.37
2023-02-09T03:46:58.113Z,24.10
2023-02-09T03:49:28.324Z,24.60
2023-02-09T03:51:55.362Z,22.63
2023-02-09T03:54:22.378Z,23.80
2023-02-09T03:56:49.299Z,23.53
2023-02-09T03:59:16.308Z,23.33
2023-02-09T04:01:43.181Z,23.77
2023-02-09T04:04:10.017Z,21.73
2023-02-09T04:06:37.277Z,21.80
2023-02-09T04:09:05.541Z,23.00
2023-02-09T04:11:32.465Z,22.63
2023-02-09T04:13:59.420Z,24.87
2023-02-09T04:16:26.800Z,23.93
2023-02-09T04:18:53.878Z,22.80
2023-02-09T04:21:20.845Z,24.20
2023-02-09T04:23:48.544Z,22.80
2023-02-09T04:26:16.017Z,22.80
2023-02-09T04:28:43.053Z,21.77
2023-02-09T04:31:10.855Z,24.63
2023-02-09T04:33:38.290Z,23.40
2023-02-09T04:36:05.969Z,22.97
2023-02-09T04:38:32.940Z,24.60
2023-02-09T04:41:01.764Z,28.80
2023-02-09T04:43:29.707Z,30.13
2023-02-09T04:45:56.970Z,26.87
2023-02-09T04:48:25.726Z,31.53
2023-02-09T04:50:53.335Z,29.13
2023-02-09T04:53:21.731Z,30.37
2023-02-09T04:55:50.522Z,34.10
2023-02-09T04:58:38.449Z,37.00
2023-02-09T05:01:06.763Z,29.67
2023-02-09T05:03:34.354Z,27.63
2023-02-09T05:06:04.326Z,25.97
2023-02-09T05:08:31.599Z,29.50
2023-02-09T05:10:59.216Z,28.83
2023-02-09T05:13:27.134Z,28.03
2023-02-09T05:15:54.382Z,27.90
2023-02-09T05:18:22.045Z,29.97
2023-02-09T05:20:49.351Z,26.00
2023-02-09T05:23:16.734Z,26.27
2023-02-09T05:25:45.741Z,28.40
2023-02-09T05:28:12.935Z,27.87
2023-02-09T05:30:40.036Z,29.53
2023-02-09T05:33:07.106Z,30.23
2023-02-09T05:35:33.993Z,28.00
2023-02-09T05:38:01.977Z,29.47
2023-02-09T05:40:28.869Z,27.40
2023-02-09T05:42:55.709Z,26.23
2023-02-09T05:45:23.449Z,27.07
2023-02-09T05:47:50.310Z,25.47
2023-02-09T05:50:17.223Z,26.93
2023-02-09T05:52:45.134Z,26.23
2023-02-09T05:55:12.246Z,28.33
2023-02-09T05:57:39.340Z,27.00
2023-02-09T06:00:06.924Z,26.80
2023-02-09T06:02:33.897Z,24.20
2023-02-09T06:05:00.924Z,25.87
2023-02-09T06:07:27.816Z,24.93
2023-02-09T06:09:54.707Z,24.43
2023-02-09T06:12:21.450Z,21.83
2023-02-09T06:14:48.376Z,24.67
2023-02-09T06:17:15.382Z,21.60
2023-02-09T06:19:42.419Z,23.00
2023-02-09T06:22:09.254Z,23.73
2023-02-09T06:24:36.056Z,23.40
2023-02-09T06:27:02.783Z,25.27
2023-02-09T06:29:29.568Z,23.97
2023-02-09T06:31:56.373Z,24.73
2023-02-09T06:34:23.510Z,24.27
2023-02-09T06:36:50.367Z,24.07
2023-02-09T06:39:17.208Z,24.93
2023-02-09T06:41:43.964Z,22.57
2023-02-09T06:44:12.079Z,22.40
2023-02-09T06:46:39.527Z,21.40
2023-02-09T06:49:06.504Z,23.60
2023-02-09T06:51:33.570Z,22.67
2023-02-09T06:54:00.414Z,24.20
2023-02-09T06:56:27.327Z,22.80
2023-02-09T06:58:54.353Z,24.33
2023-02-09T07:01:21.286Z,21.77
2023-02-09T07:03:48.047Z,23.53
2023-02-09T07:06:17.723Z,23.17
2023-02-09T07:08:45.589Z,22.93
2023-02-09T07:11:15.442Z,22.43
2023-02-09T07:13:43.364Z,21.43
2023-02-09T07:16:11.534Z,25.87
2023-02-09T07:18:39.329Z,23.57
2023-02-09T07:21:09.399Z,24.90
2023-02-09T07:23:36.472Z,25.30
2023-02-09T07:26:06.231Z,23.23
2023-02-09T07:28:35.209Z,25.03
2023-02-09T07:31:05.553Z,23.30
2023-02-09T07:33:33.119Z,25.57
2023-02-09T07:36:00.169Z,24.40
2023-02-09T07:38:27.182Z,24.10
2023-02-09T07:40:55.190Z,24.23
2023-02-09T07:43:22.022Z,24.10
2023-02-09T07:45:48.882Z,22.20
2023-02-09T07:48:15.802Z,24.20
2023-02-09T07:50:49.468Z,24.00
2023-02-09T07:53:16.523Z,21.73
2023-02-09T07:55:43.599Z,20.70
2023-02-09T07:58:10.982Z,23.30
2023-02-09T08:00:38.149Z,22.93
2023-02-09T08:03:05.967Z,23.00
2023-02-09T08:05:49.750Z,21.20
2023-02-09T08:08:16.613Z,22.37
2023-02-09T08:10:43.718Z,22.43
2023-02-09T08:13:11.712Z,20.83
2023-02-09T08:15:50.193Z,23.10
2023-02-09T08:18:28.507Z,23.87
2023-02-09T08:20:55.626Z,23.37
2023-02-09T08:23:29.969Z,20.90
2023-02-09T08:25:58.196Z,24.17
2023-02-09T08:28:35.023Z,23.07
2023-02-09T08:31:08.837Z,23.63
2023-02-09T08:33:35.940Z,21.13
2023-02-09T08:36:02.825Z,22.57
2023-02-09T08:38:29.596Z,21.43
2023-02-09T08:40:56.434Z,20.13
2023-02-09T08:43:23.325Z,24.07
2023-02-09T08:45:51.665Z,22.03
2023-02-09T08:48:19.677Z,22.67
2023-02-09T08:50:46.566Z,24.03
2023-02-09T08:53:13.416Z,24.50
2023-02-09T08:55:40.246Z,23.60
2023-02-09T08:58:07.747Z,19.47
2023-02-09T09:00:34.566Z,19.23
2023-02-09T09:03:05.760Z,19.20
2023-02-09T09:05:34.983Z,22.10
2023-02-09T09:08:02.438Z,20.87
2023-02-09T09:10:29.737Z,22.00
2023-02-09T09:12:57.214Z,21.10
2023-02-09T09:15:24.310Z,22.50
2023-02-09T09:17:51.191Z,21.77
2023-02-09T09:20:18.412Z,23.13
2023-02-09T09:22:45.155Z,20.37
2023-02-09T09:25:11.882Z,20.13
2023-02-09T09:27:38.817Z,22.37
2023-02-09T09:30:07.234Z,20.23
2023-02-09T09:32:34.118Z,19.97
2023-02-09T09:35:03.526Z,20.30
2023-02-09T09:37:30.500Z,20.60
2023-02-09T09:39:57.304Z,20.40
2023-02-09T09:42:37.402Z,17.40
2023-02-09T09:45:07.469Z,19.67
2023-02-09T09:47:40.795Z,18.27
2023-02-09T09:50:27.340Z,17.33
2023-02-09T09:53:05.136Z,16.10
2023-02-09T09:55:33.557Z,16.47
2023-02-09T09:58:04.045Z,15.23
2023-02-09T10:00:40.511Z,14.93
2023-02-09T10:03:19.798Z,12.70
2023-02-09T10:06:01.994Z,12.87
2023-02-09T10:08:32.667Z,13.20
2023-02-09T10:11:14.807Z,14.57
2023-02-09T10:13:47.708Z,10.07
2023-02-09T10:16:30.511Z,10.53
2023-02-09T10:19:01.595Z,12.90
2023-02-09T10:21:31.481Z,12.73
2023-02-09T10:24:01.217Z,12.27
2023-02-09T10:26:28.202Z,12.07
2023-02-09T10:29:00.966Z,10.23
2023-02-09T10:31:27.837Z,12.10
2023-02-09T10:34:00.529Z,13.93
2023-02-09T10:36:32.885Z,14.57
2023-02-09T10:39:16.367Z,14.60
2023-02-09T10:41:47.096Z,13.37
2023-02-09T10:44:40.493Z,15.93
2023-02-09T10:47:10.303Z,16.27
2023-02-09T10:49:40.014Z,16.23
2023-02-09T10:52:15.810Z,16.47
2023-02-09T10:54:53.281Z,16.63
2023-02-09T10:57:33.797Z,14.77
2023-02-09T11:00:06.174Z,16.10
2023-02-09T11:02:36.380Z,14.63
2023-02-09T11:05:24.713Z,14.53
2023-02-09T11:07:58.501Z,13.40
2023-02-09T11:10:29.015Z,12.53
2023-02-09T11:12:56.145Z,18.20
2023-02-09T11:15:35.835Z,15.53
2023-02-09T11:18:10.817Z,17.50
2023-02-09T11:20:49.524Z,12.93
2023-02-09T11:23:31.321Z,17.47
2023-02-09T11:26:26.607Z,16.87
2023-02-09T11:29:21.187Z,17.80
2023-02-09T11:32:22.316Z,16.77
2023-02-09T11:34:58.292Z,19.13
2023-02-09T11:37:30.605Z,17.17
2023-02-09T11:40:23.514Z,18.80
2023-02-09T11:43:19.169Z,16.30
2023-02-09T11:45:50.141Z,18.10
2023-02-09T11:48:38.833Z,14.43
2023-02-09T11:51:20.913Z,16.70
2023-02-09T11:53:57.238Z,16.83
2023-02-09T11:56:26.432Z,13.73
2023-02-09T11:58:56.022Z,15.30
2023-02-09T12:01:40.049Z,17.20
2023-02-09T12:04:17.918Z,16.73
2023-02-09T12:07:05.294Z,16.70
2023-02-09T12:09:48.846Z,17.27
2023-02-09T12:12:25.216Z,14.73
2023-02-09T12:15:12.131Z,15.67
2023-02-09T12:18:04.151Z,15.17
2023-02-09T12:20:37.167Z,15.70
2023-02-09T12:23:31.307Z,15.07
2023-02-09T12:26:11.394Z,15.50
2023-02-09T12:28:45.489Z,16.50
2023-02-09T12:31:22.107Z,16.47
2023-02-09T12:33:49.004Z,15.93
2023-02-09T12:36:16.147Z,17.63
2023-02-09T12:38:56.486Z,16.47
2023-02-09T12:41:25.657Z,16.20
2023-02-09T12:44:10.796Z,14.50
2023-02-09T12:46:53.122Z,16.00
2023-02-09T12:49:31.895Z,16.43
2023-02-09T12:52:01.598Z,16.37
2023-02-09T12:54:52.503Z,16.40
2023-02-09T12:57:23.910Z,16.70
2023-02-09T12:59:53.378Z,15.87
2023-02-09T13:02:55.123Z,13.00
2023-02-09T13:05:33.914Z,15.33
2023-02-09T13:08:18.826Z,16.03
2023-02-09T13:11:03.881Z,15.00
2023-02-09T13:13:52.936Z,13.93
2023-02-09T13:16:22.793Z,15.83
2023-02-09T13:18:55.450Z,14.50
2023-02-09T13:21:53.310Z,15.73
2023-02-09T13:24:31.333Z,14.47
2023-02-09T13:26:59.784Z,14.77
2023-02-09T13:29:29.670Z,14.20
2023-02-09T13:32:17.584Z,14.77
2023-02-09T13:35:08.923Z,13.57
2023-02-09T13:37:44.903Z,14.73
2023-02-09T13:40:28.510Z,14.00
2023-02-09T13:43:19.017Z,14.93
2023-02-09T13:45:55.089Z,15.23
2023-02-09T13:48:39.369Z,12.90
2023-02-09T13:51:18.684Z,14.90
2023-02-09T13:54:00.547Z,13.63
2023-02-09T13:56:28.451Z,15.00
2023-02-09T13:58:55.809Z,14.47
2023-02-09T14:01:32.816Z,14.80
2023-02-09T14:04:04.603Z,13.83
2023-02-09T14:06:44.360Z,13.23
2023-02-09T14:09:29.255Z,14.27
2023-02-09T14:12:01.932Z,14.40
2023-02-09T14:14:54.718Z,15.33
2023-02-09T14:17:32.302Z,15.17
2023-02-09T14:20:00.402Z,16.17
2023-02-09T14:22:33.492Z,14.33
2023-02-09T14:25:05.447Z,16.20
2023-02-09T14:27:33.287Z,13.87
2023-02-09T14:30:01.339Z,15.83
2023-02-09T14:32:40.539Z,14.73
2023-02-09T14:35:19.613Z,14.73
2023-02-09T14:37:47.994Z,15.50
2023-02-09T14:40:27.756Z,15.47
2023-02-09T14:43:07.009Z,15.20
2023-02-09T14:45:37.380Z,14.63
2023-02-09T14:48:28.052Z,14.37
2023-02-09T14:51:01.491Z,14.50
2023-02-09T14:53:33.052Z,15.33
2023-02-09T14:56:00.968Z,16.03
2023-02-09T14:58:30.815Z,15.77
2023-02-09T15:01:00.762Z,15.60
2023-02-09T15:03:28.102Z,16.17
2023-02-09T15:06:00.619Z,17.13
2023-02-09T15:08:30.142Z,17.27
2023-02-09T15:11:02.784Z,16.30
2023-02-09T15:13:31.260Z,16.20
2023-02-09T15:15:58.109Z,18.10
2023-02-09T15:18:26.855Z,17.23
2023-02-09T15:20:53.645Z,18.03
2023-02-09T15:23:20.918Z,18.87
2023-02-09T15:25:48.308Z,18.57
2023-02-09T15:28:28.835Z,19.60
2023-02-09T15:30:57.361Z,23.17
2023-02-09T15:33:28.382Z,20.17
2023-02-09T15:35:59.220Z,20.70
2023-02-09T15:38:28.033Z,21.60
2023-02-09T15:41:13.451Z,21.13
2023-02-09T15:43:58.706Z,20.33
2023-02-09T15:46:44.088Z,21.43
2023-02-09T15:49:10.895Z,23.53
2023-02-09T15:51:39.625Z,22.10
2023-02-09T15:54:14.112Z,23.13
2023-02-09T15:56:41.462Z,26.63
2023-02-09T15:59:16.771Z,25.67
2023-02-09T16:01:43.832Z,29.80
2023-02-09T16:04:14.803Z,37.20
2023-02-09T16:06:53.213Z,30.07
2023-02-09T16:09:24.270Z,27.87
2023-02-09T16:11:51.551Z,23.13
2023-02-09T16:14:23.480Z,24.10
2023-02-09T16:16:50.706Z,22.33
2023-02-09T16:19:19.756Z,24.27
2023-02-09T16:21:54.193Z,22.97
2023-02-09T16:24:32.232Z,24.03
2023-02-09T16:27:02.244Z,22.70
2023-02-09T16:29:29.197Z,21.83
2023-02-09T16:31:56.012Z,25.07
2023-02-09T16:34:22.776Z,28.90
2023-02-09T16:36:50.169Z,26.27
2023-02-09T16:39:19.685Z,28.30
2023-02-09T16:41:47.526Z,23.50
2023-02-09T16:44:26.282Z,23.30
2023-02-09T16:46:55.753Z,25.93
2023-02-09T16:49:39.409Z,22.43
2023-02-09T16:52:17.030Z,22.40
2023-02-09T16:54:48.157Z,21.50
2023-02-09T16:57:17.876Z,22.57
2023-02-09T16:59:45.523Z,21.20
2023-02-09T17:02:35.635Z,19.10
2023-02-09T17:05:21.208Z,23.13
2023-02-09T17:07:54.923Z,22.30
2023-02-09T17:10:25.354Z,21.40
2023-02-09T17:12:53.727Z,20.17
2023-02-09T17:15:30.146Z,19.87
2023-02-09T17:18:03.801Z,20.43
2023-02-09T17:20:41.911Z,20.13
2023-02-09T17:23:18.438Z,19.00
2023-02-09T17:25:45.615Z,18.93
2023-02-09T17:28:12.942Z,21.83
2023-02-09T17:30:40.352Z,25.20
2023-02-09T17:33:24.448Z,22.30
2023-02-09T17:36:22.812Z,22.77
2023-02-09T17:38:41.095Z,21.07
2023-02-09T17:41:33.423Z,21.03
2023-02-09T17:44:39.188Z,19.33
2023-02-09T17:47:17.180Z,18.67
2023-02-09T17:49:44.199Z,17.37
2023-02-09T17:52:19.068Z,16.87
2023-02-09T17:54:46.364Z,15.97
2023-02-09T17:57:15.119Z,13.57
2023-02-09T17:59:42.263Z,15.67
2023-02-09T18:02:15.883Z,15.40
2023-02-09T18:04:43.112Z,14.93
2023-02-09T18:07:10.587Z,14.53
2023-02-09T18:09:37.465Z,15.23
2023-02-09T18:12:11.127Z,13.53
2023-02-09T18:14:37.872Z,14.80
2023-02-09T18:17:04.788Z,16.90
2023-02-09T18:19:33.068Z,16.80
2023-02-09T18:22:01.609Z,13.27
2023-02-09T18:24:32.310Z,13.83
2023-02-09T18:26:59.461Z,14.80
2023-02-09T18:29:29.366Z,15.33
2023-02-09T18:32:00.777Z,14.20
2023-02-09T18:34:28.130Z,13.30
2023-02-09T18:36:55.409Z,15.10
2023-02-09T18:39:22.194Z,9.70
2023-02-09T18:41:54.444Z,14.57
2023-02-09T18:44:24.601Z,15.27
2023-02-09T18:46:51.478Z,13.60
2023-02-09T18:49:18.332Z,13.37
2023-02-09T18:51:45.089Z,15.20
2023-02-09T18:54:13.177Z,14.93
2023-02-09T18:56:40.016Z,16.87
2023-02-09T18:59:08.024Z,15.47
2023-02-09T19:01:36.677Z,13.83
2023-02-09T19:04:03.558Z,14.33
2023-02-09T19:06:32.639Z,11.23
2023-02-09T19:08:59.425Z,15.77
2023-02-09T19:11:27.291Z,12.43
2023-02-09T19:14:12.821Z,15.67
2023-02-09T19:16:41.129Z,14.00
2023-02-09T19:19:09.413Z,16.40
2023-02-09T19:21:36.328Z,12.27
2023-02-09T19:24:03.749Z,15.23
2023-02-09T19:26:30.497Z,13.67
2023-02-09T19:28:57.701Z,16.97
2023-02-09T19:31:25.081Z,15.37
2023-02-09T19:33:57.819Z,14.53
2023-02-09T19:36:25.189Z,15.20
2023-02-09T19:38:52.466Z,14.57
2023-02-09T19:41:20.562Z,11.97
2023-02-09T19:43:48.586Z,12.93
2023-02-09T19:46:15.405Z,15.50
2023-02-09T19:48:42.406Z,13.47
2023-02-09T19:51:09.188Z,16.47
2023-02-09T19:53:36.316Z,13.47
2023-02-09T19:56:03.397Z,15.30
2023-02-09T19:58:30.183Z,15.67
2023-02-09T20:00:57.274Z,13.03
2023-02-09T20:03:24.827Z,16.83
2023-02-09T20:05:51.995Z,17.67
2023-02-09T20:08:20.254Z,17.37
2023-02-09T20:10:47.908Z,18.30
2023-02-09T20:13:15.788Z,17.13
2023-02-09T20:15:43.983Z,14.37
2023-02-09T20:18:13.663Z,17.37
2023-02-09T20:20:43.272Z,12.97
2023-02-09T20:23:10.392Z,15.83
2023-02-09T20:25:41.018Z,16.20
2023-02-09T20:28:08.774Z,15.27
2023-02-09T20:30:35.823Z,14.70
2023-02-09T20:33:02.775Z,14.93
2023-02-09T20:35:29.826Z,14.10
2023-02-09T20:37:56.656Z,15.70
2023-02-09T20:40:23.924Z,16.57
2023-02-09T20:43:09.754Z,17.27
2023-02-09T20:45:55.432Z,16.93
2023-02-09T20:48:23.309Z,16.60
2023-02-09T20:50:50.188Z,13.97
2023-02-09T20:53:17.190Z,15.53
2023-02-09T20:55:45.247Z,16.83
2023-02-09T20:58:13.785Z,17.37
2023-02-09T21:00:42.822Z,17.80
2023-02-09T21:03:09.658Z,17.27
2023-02-09T21:05:36.488Z,16.57
2023-02-09T21:08:04.564Z,18.03
2023-02-09T21:10:35.884Z,17.07
2023-02-09T21:13:06.004Z,15.90
2023-02-09T21:15:39.357Z,17.27
2023-02-09T21:18:06.820Z,17.17
2023-02-09T21:20:37.116Z,18.50
2023-02-09T21:23:04.198Z,17.70
2023-02-09T21:25:31.377Z,18.70
2023-02-09T21:28:01.056Z,18.67
2023-02-09T21:30:29.277Z,17.77
2023-02-09T21:32:57.303Z,17.07
2023-02-09T21:35:24.399Z,18.40
2023-02-09T21:37:51.412Z,17.03
2023-02-09T21:40:20.397Z,16.83
2023-02-09T21:42:48.866Z,18.53
2023-02-09T21:45:15.940Z,17.53
2023-02-09T21:47:44.015Z,16.70
2023-02-09T21:50:13.094Z,18.13
2023-02-09T21:52:40.167Z,17.23
2023-02-09T21:55:08.466Z,17.33
2023-02-09T21:57:38.390Z,18.57
2023-02-09T22:00:07.854Z,16.67
2023-02-09T22:02:35.472Z,14.33
2023-02-09T22:05:02.758Z,17.43
2023-02-09T22:07:30.111Z,15.33
2023-02-09T22:09:56.977Z,15.47
2023-02-09T22:12:23.803Z,14.03
2023-02-09T22:14:50.687Z,16.10
2023-02-09T22:17:17.688Z,16.30
2023-02-09T22:19:44.775Z,16.40
2023-02-09T22:22:11.657Z,15.50
2023-02-09T22:24:38.768Z,15.53
2023-02-09T22:27:06.905Z,16.80
2023-02-09T22:29:34.526Z,13.87
2023-02-09T22:32:01.808Z,14.47
2023-02-09T22:34:29.021Z,14.67
2023-02-09T22:36:55.973Z,13.67
2023-02-09T22:39:22.923Z,13.40
2023-02-09T22:41:49.770Z,14.13
2023-02-09T22:44:17.536Z,14.13
2023-02-09T22:46:45.563Z,14.63
2023-02-09T22:49:19.378Z,13.97
2023-02-09T22:51:48.050Z,13.90
2023-02-09T22:54:18.143Z,12.63
2023-02-09T22:56:45.670Z,12.93
2023-02-09T22:59:14.617Z,14.83
2023-02-09T23:01:42.488Z,15.30
2023-02-09T23:04:11.955Z,12.53
2023-02-09T23:06:39.146Z,13.60
2023-02-09T23:09:07.683Z,13.53
2023-02-09T23:11:35.378Z,13.93
2023-02-09T23:14:10.705Z,14.57
2023-02-09T23:16:40.189Z,16.13
2023-02-09T23:19:08.587Z,14.40
2023-02-09T23:21:38.069Z,14.70
2023-02-09T23:24:05.676Z,15.20
2023-02-09T23:26:33.126Z,12.03
2023-02-09T23:29:03.155Z,13.43
2023-02-09T23:31:30.721Z,14.07
2023-02-09T23:33:59.141Z,13.80
2023-02-09T23:36:29.564Z,14.13
2023-02-09T23:38:59.491Z,12.27
2023-02-09T23:41:27.814Z,15.50
2023-02-09T23:43:56.399Z,14.37
2023-02-09T23:46:28.613Z,12.93
2023-02-09T23:48:56.645Z,14.67
2023-02-09T23:51:29.731Z,13.80
2023-02-09T23:53:59.136Z,14.37
2023-02-09T23:56:27.732Z,14.37
2023-02-09T23:58:54.851Z,15.77
